Time;durP1;ratioP1;P1;durP2;ratioP2;P2;SDS_P1;SDS_P2;PMS_P1;PMS_P2;Temp;Humidity;BMP_temperature;BMP_pressure;BME280_temperature;BME280_humidity;BME280_pressure;Samples;Min_cycle;Max_cycle;Signal;HPM_P1;HPM_P2
2023/05/16 00:01:11;;;;;;;16.55;2.13;;;8.70;99.90;;;;;;5042540;28;20393;-83
2023/05/16 00:03:38;;;;;;;12.52;2.40;;;9.20;99.90;;;;;;5026026;28;20114;-83
2023/05/16 00:06:04;;;;;;;15.88;1.90;;;8.70;99.90;;;;;;5040710;28;20048;-82
2023/05/16 00:08:30;;;;;;;15.40;2.63;;;9.20;99.90;;;;;;5041158;28;20171;-83
2023/05/16 00:10:56;;;;;;;19.38;2.88;;;8.60;99.90;;;;;;5045593;28;20136;-82
2023/05/16 00:13:25;;;;;;;14.98;2.05;;;8.60;99.90;;;;;;5028844;28;20037;-82
2023/05/16 00:15:52;;;;;;;16.08;1.83;;;8.60;99.90;;;;;;5030028;28;20072;-82
2023/05/16 00:18:18;;;;;;;23.55;2.05;;;8.50;99.90;;;;;;5043929;28;20102;-81
2023/05/16 00:20:44;;;;;;;14.90;1.95;;;8.50;99.90;;;;;;5042465;28;20044;-81
2023/05/16 00:23:14;;;;;;;14.38;1.70;;;8.50;99.90;;;;;;5029335;28;20127;-80
2023/05/16 00:25:40;;;;;;;11.45;1.85;;;8.50;99.90;;;;;;5028541;28;20049;-81
2023/05/16 00:28:07;;;;;;;21.25;2.50;;;8.50;99.90;;;;;;5026246;28;20090;-80
2023/05/16 00:30:33;;;;;;;13.80;1.90;;;8.40;99.90;;;;;;5028108;28;20040;-82
2023/05/16 00:32:58;;;;;;;15.88;2.00;;;8.50;99.90;;;;;;5045111;28;20048;-82
2023/05/16 00:35:24;;;;;;;14.52;2.20;;;8.40;99.90;;;;;;5060640;28;20078;-81
2023/05/16 00:37:50;;;;;;;17.27;2.75;;;8.40;99.90;;;;;;5044784;28;20040;-81
2023/05/16 00:40:16;;;;;;;13.88;1.77;;;8.40;99.90;;;;;;5044977;28;20041;-82
2023/05/16 00:42:42;;;;;;;16.05;2.60;;;8.40;99.90;;;;;;5045906;28;20828;-81
2023/05/16 00:45:09;;;;;;;13.73;1.60;;;8.40;99.90;;;;;;5045049;28;20045;-81
2023/05/16 00:47:35;;;;;;;12.70;1.67;;;8.40;99.90;;;;;;5044174;28;20086;-82
2023/05/16 00:50:02;;;;;;;8.13;1.60;;;8.40;99.90;;;;;;5027787;28;20052;-82
2023/05/16 00:52:30;;;;;;;13.52;2.00;;;8.30;99.90;;;;;;5043819;28;20168;-82
2023/05/16 00:54:56;;;;;;;15.10;1.80;;;8.30;99.90;;;;;;5044352;28;20037;-82
2023/05/16 00:57:22;;;;;;;15.27;2.00;;;8.30;99.90;;;;;;5046983;28;20045;-81
2023/05/16 00:59:49;;;;;;;14.00;2.78;;;8.30;99.90;;;;;;5044590;28;20797;-81
2023/05/16 01:02:15;;;;;;;11.30;2.30;;;8.30;99.90;;;;;;5043719;28;20039;-82
2023/05/16 01:04:43;;;;;;;12.85;2.00;;;8.80;99.90;;;;;;5027336;28;20139;-82
2023/05/16 01:07:09;;;;;;;14.77;1.60;;;8.20;99.90;;;;;;5044532;28;20080;-81
2023/05/16 01:09:35;;;;;;;12.32;2.08;;;8.20;99.90;;;;;;5027762;28;20044;-82
2023/05/16 01:12:03;;;;;;;15.75;1.95;;;8.20;99.90;;;;;;5044341;28;20327;-82
2023/05/16 01:15:06;;;;;;;23.10;2.65;;;8.20;99.90;;;;;;5042764;28;20048;-82
2023/05/16 01:18:03;;;;;;;15.45;2.03;;;8.20;99.90;;;;;;5026289;28;20120;-82
2023/05/16 01:20:48;;;;;;;16.65;1.98;;;8.20;99.90;;;;;;5011232;28;20076;-82
2023/05/16 01:23:19;;;;;;;10.95;2.45;;;8.20;99.90;;;;;;5044679;28;20455;-81
2023/05/16 01:25:54;;;;;;;;;;;8.20;99.90;;;;;;5048672;28;20134;-81
2023/05/16 01:28:21;;;;;;;17.70;2.75;;;8.20;99.90;;;;;;5033078;28;19920;-82
2023/05/16 01:30:47;;;;;;;14.00;1.80;;;8.10;99.90;;;;;;5031222;28;20037;-83
2023/05/16 01:33:12;;;;;;;13.50;2.17;;;8.10;99.90;;;;;;5032445;28;20045;-83
2023/05/16 01:35:46;;;;;;;17.73;1.98;;;8.10;99.90;;;;;;5032108;28;20036;-83
2023/05/16 01:38:23;;;;;;;10.35;1.98;;;8.10;99.90;;;;;;5028041;28;20037;-83
2023/05/16 01:41:07;;;;;;;9.35;1.60;;;8.10;99.90;;;;;;5029745;28;20459;-83
2023/05/16 01:43:37;;;;;;;13.23;2.20;;;8.10;99.90;;;;;;5046553;28;20098;-83
2023/05/16 01:46:20;;;;;;;8.40;1.50;;;8.10;99.90;;;;;;5047405;28;20053;-82
2023/05/16 01:49:06;;;;;;;12.18;2.17;;;8.20;99.90;;;;;;5063211;28;20075;-81
2023/05/16 01:51:33;;;;;;;13.45;2.13;;;8.10;99.90;;;;;;5046429;28;20041;-81
2023/05/16 01:54:04;;;;;;;10.40;1.63;;;8.10;99.90;;;;;;5026003;28;20164;-81
2023/05/16 01:56:31;;;;;;;10.32;1.45;;;8.10;99.90;;;;;;5028711;28;20051;-81
2023/05/16 01:58:58;;;;;;;17.30;2.00;;;8.10;99.90;;;;;;5045345;28;20099;-81
2023/05/16 02:01:24;;;;;;;14.30;2.10;;;8.20;99.90;;;;;;5062692;28;20037;-81
2023/05/16 02:03:50;;;;;;;9.95;1.75;;;8.20;99.90;;;;;;5044625;28;20079;-81
2023/05/16 02:06:16;;;;;;;11.98;1.83;;;8.20;99.90;;;;;;5030424;28;20033;-81
2023/05/16 02:08:42;;;;;;;10.07;1.90;;;8.10;99.90;;;;;;5029819;28;20115;-81
2023/05/16 02:11:07;;;;;;;10.52;1.50;;;8.10;99.90;;;;;;5030092;28;20037;-82
2023/05/16 02:13:33;;;;;;;12.00;1.60;;;8.10;99.90;;;;;;5047255;28;20064;-81
2023/05/16 02:15:59;;;;;;;11.80;1.80;;;8.10;99.90;;;;;;5047622;28;20045;-81
2023/05/16 02:18:27;;;;;;;12.73;1.75;;;8.10;99.90;;;;;;5028337;28;20039;-81
2023/05/16 02:20:52;;;;;;;16.48;1.80;;;8.20;99.90;;;;;;5047358;28;20053;-81
2023/05/16 02:23:18;;;;;;;15.95;2.13;;;8.20;99.90;;;;;;5046525;28;20083;-81
2023/05/16 02:25:44;;;;;;;15.35;2.28;;;8.10;99.90;;;;;;5028826;28;20057;-82
2023/05/16 02:28:10;;;;;;;15.00;2.15;;;8.20;99.90;;;;;;5030606;28;20501;-82
2023/05/16 02:30:35;;;;;;;20.33;2.88;;;8.10;99.90;;;;;;5042337;28;20032;-82
2023/05/16 02:33:03;;;;;;;11.02;1.85;;;8.10;99.90;;;;;;5044343;28;20047;-82
2023/05/16 02:35:29;;;;;;;16.85;2.10;;;8.30;99.90;;;;;;5043849;28;20394;-82
2023/05/16 02:37:56;;;;;;;16.13;2.63;;;8.10;99.90;;;;;;5047740;28;20047;-83
2023/05/16 02:40:21;;;;;;;12.95;1.88;;;8.10;99.90;;;;;;5029350;28;20287;-82
2023/05/16 02:42:47;;;;;;;11.50;1.77;;;8.10;99.90;;;;;;5030560;28;20047;-83
2023/05/16 02:45:13;;;;;;;15.73;2.28;;;8.30;99.90;;;;;;5045771;28;20060;-83
2023/05/16 02:47:39;;;;;;;8.98;1.70;;;8.00;99.90;;;;;;5023154;28;20064;-82
2023/05/16 02:50:05;;;;;;;16.85;2.15;;;8.00;99.90;;;;;;5023254;28;20425;-82
2023/05/16 02:52:34;;;;;;;20.20;1.85;;;8.00;99.90;;;;;;5037025;28;20060;-82
2023/05/16 02:55:00;;;;;;;15.10;2.20;;;8.00;99.90;;;;;;5059719;28;20041;-82
2023/05/16 02:57:26;;;;;;;13.25;2.22;;;8.00;99.90;;;;;;5043155;28;20360;-82
2023/05/16 02:59:52;;;;;;;10.30;1.55;;;8.10;99.90;;;;;;5042950;28;20060;-83
2023/05/16 03:02:17;;;;;;;13.35;2.88;;;8.10;99.90;;;;;;5024628;28;20505;-82
2023/05/16 03:04:43;;;;;;;17.58;2.20;;;8.20;99.90;;;;;;5042004;28;20041;-82
2023/05/16 03:07:08;;;;;;;11.82;1.90;;;8.80;99.90;;;;;;5044060;28;20076;-82
2023/05/16 03:09:34;;;;;;;12.43;1.80;;;8.10;99.90;;;;;;5042612;28;20132;-82
2023/05/16 03:12:00;;;;;;;19.80;2.47;;;8.30;99.90;;;;;;5028385;28;20425;-82
2023/05/16 03:14:26;;;;;;;16.83;2.33;;;7.80;99.90;;;;;;5046959;28;20697;-82
2023/05/16 03:16:52;;;;;;;15.75;1.80;;;7.80;99.90;;;;;;5043837;28;20060;-82
2023/05/16 03:19:17;;;;;;;14.38;2.10;;;8.10;99.90;;;;;;5061010;28;20049;-82
2023/05/16 03:21:43;;;;;;;11.30;1.77;;;7.90;99.90;;;;;;5018332;28;20045;-81
2023/05/16 03:24:10;;;;;;;11.95;1.77;;;7.70;99.90;;;;;;5040541;28;20068;-82
2023/05/16 03:26:35;;;;;;;17.52;2.33;;;8.50;99.90;;;;;;5039818;28;20057;-82
2023/05/16 03:29:01;;;;;;;13.18;1.67;;;7.70;99.90;;;;;;5021255;28;20068;-82
2023/05/16 03:31:27;;;;;;;13.82;2.22;;;8.30;99.90;;;;;;5041057;28;20047;-82
2023/05/16 03:33:52;;;;;;;15.00;1.77;;;7.60;99.90;;;;;;5043517;28;20041;-81
2023/05/16 03:36:21;;;;;;;16.52;1.80;;;7.60;99.90;;;;;;5025679;28;20108;-82
2023/05/16 03:38:47;;;;;;;16.08;2.17;;;7.60;99.90;;;;;;5042091;28;20497;-83
2023/05/16 03:41:13;;;;;;;12.52;1.83;;;7.60;99.90;;;;;;5044447;28;20048;-82
2023/05/16 03:43:38;;;;;;;10.43;1.80;;;7.60;99.90;;;;;;5042916;28;20083;-83
2023/05/16 03:46:04;;;;;;;15.32;2.85;;;7.60;99.90;;;;;;5042798;28;20501;-82
2023/05/16 03:48:30;;;;;;;11.10;3.05;;;8.40;99.90;;;;;;5040040;28;20072;-82
2023/05/16 03:50:56;;;;;;;14.70;1.60;;;6.90;99.90;;;;;;5037112;28;20328;-82
2023/05/16 03:53:21;;;;;;;19.48;1.80;;;7.50;99.90;;;;;;5040033;28;20457;-82
2023/05/16 03:55:47;;;;;;;13.57;1.95;;;7.50;99.90;;;;;;5057164;28;20102;-82
2023/05/16 03:58:13;;;;;;;17.80;2.72;;;7.60;99.90;;;;;;5040479;28;20660;-82
2023/05/16 04:00:39;;;;;;;12.20;1.60;;;7.50;99.90;;;;;;5031538;28;20044;-82
2023/05/16 04:03:04;;;;;;;10.73;1.70;;;7.50;99.90;;;;;;5021609;28;20040;-82
2023/05/16 04:05:30;;;;;;;15.48;1.88;;;7.50;99.90;;;;;;5055889;28;20506;-82
2023/05/16 04:07:56;;;;;;;15.02;2.10;;;7.50;99.90;;;;;;5028201;28;20114;-82
2023/05/16 04:10:22;;;;;;;13.88;1.63;;;7.50;99.90;;;;;;5057683;28;20040;-82
2023/05/16 04:12:48;;;;;;;17.05;2.03;;;7.50;99.90;;;;;;5039746;28;20064;-82
2023/05/16 04:15:13;;;;;;;12.40;1.88;;;7.90;99.90;;;;;;5042445;28;20090;-82
2023/05/16 04:17:39;;;;;;;11.68;1.98;;;7.50;99.90;;;;;;5038427;28;20107;-82
2023/05/16 04:20:06;;;;;;;11.32;1.85;;;7.40;99.90;;;;;;5040760;28;20033;-82
2023/05/16 04:22:32;;;;;;;9.80;2.00;;;7.50;99.90;;;;;;5037518;28;20045;-82
2023/05/16 04:24:58;;;;;;;10.98;1.80;;;7.30;99.90;;;;;;5018334;28;20608;-82
2023/05/16 04:27:23;;;;;;;12.98;2.47;;;7.50;99.90;;;;;;5042771;28;20041;-82
2023/05/16 04:29:49;;;;;;;12.65;1.90;;;7.80;99.90;;;;;;5044521;28;20057;-82
2023/05/16 04:32:16;;;;;;;15.60;1.60;;;7.80;99.90;;;;;;5019950;28;20503;-82
2023/05/16 04:34:43;;;;;;;12.70;2.67;;;7.50;99.90;;;;;;5019247;28;20056;-82
2023/05/16 04:37:08;;;;;;;12.82;2.03;;;7.60;99.90;;;;;;5037534;28;20468;-82
2023/05/16 04:39:35;;;;;;;8.43;1.58;;;7.70;99.90;;;;;;5036905;28;20056;-82
2023/05/16 04:42:03;;;;;;;15.35;1.60;;;7.70;99.90;;;;;;5037775;28;20037;-82
2023/05/16 04:44:30;;;;;;;13.43;2.00;;;7.90;99.90;;;;;;5041316;28;20041;-82
2023/05/16 04:46:56;;;;;;;14.40;1.92;;;7.60;99.90;;;;;;5059881;28;20040;-83
2023/05/16 04:49:22;;;;;;;11.18;2.50;;;8.50;99.90;;;;;;5047375;28;21322;-82
2023/05/16 04:51:51;;;;;;;15.82;2.05;;;7.60;99.90;;;;;;5043187;28;20053;-82
2023/05/16 04:54:17;;;;;;;9.98;2.17;;;7.90;99.90;;;;;;5032788;28;20079;-82
2023/05/16 04:56:44;;;;;;;9.57;1.50;;;7.90;99.90;;;;;;5044401;28;20102;-82
2023/05/16 04:59:10;;;;;;;8.50;1.60;;;7.60;99.90;;;;;;5048925;28;20140;-82
2023/05/16 05:01:36;;;;;;;10.70;2.20;;;7.60;99.90;;;;;;5028123;28;20049;-82
2023/05/16 05:04:04;;;;;;;11.90;1.67;;;7.60;99.90;;;;;;5048290;28;20055;-81
2023/05/16 05:06:31;;;;;;;13.80;1.90;;;7.60;99.90;;;;;;5033627;28;20040;-82
2023/05/16 05:08:56;;;;;;;12.65;1.90;;;7.60;99.90;;;;;;5062645;28;20052;-82
2023/05/16 05:11:22;;;;;;;11.57;1.85;;;7.80;99.90;;;;;;5063533;28;20059;-82
2023/05/16 05:13:48;;;;;;;9.95;1.88;;;8.50;99.90;;;;;;5046526;28;20410;-82
2023/05/16 05:16:14;;;;;;;19.55;3.00;;;8.50;99.90;;;;;;5042323;28;20045;-82
2023/05/16 05:18:39;;;;;;;11.27;1.52;;;8.80;99.90;;;;;;5046344;28;20106;-82
2023/05/16 05:21:05;;;;;;;12.43;1.90;;;9.20;99.90;;;;;;5042802;28;20097;-82
2023/05/16 05:23:31;;;;;;;16.50;2.28;;;9.30;99.90;;;;;;5044628;28;20513;-82
2023/05/16 05:25:57;;;;;;;8.40;1.30;;;9.40;99.90;;;;;;5026481;28;20190;-81
2023/05/16 05:28:23;;;;;;;8.55;1.33;;;9.40;99.90;;;;;;5026352;28;20148;-82
2023/05/16 05:30:49;;;;;;;10.15;2.08;;;9.40;99.90;;;;;;5044038;28;20414;-82
2023/05/16 05:33:17;;;;;;;14.48;1.88;;;9.40;99.90;;;;;;5040482;28;20056;-82
2023/05/16 05:35:43;;;;;;;14.00;2.13;;;9.30;99.90;;;;;;5041703;28;20505;-82
2023/05/16 05:38:09;;;;;;;15.30;1.58;;;9.20;99.90;;;;;;5024579;28;20037;-82
2023/05/16 05:40:35;;;;;;;13.60;1.80;;;9.20;99.90;;;;;;5032016;28;20060;-82
2023/05/16 05:43:00;;;;;;;14.73;2.03;;;9.20;99.90;;;;;;5016955;28;20036;-83
2023/05/16 05:45:26;;;;;;;12.73;1.80;;;9.30;99.90;;;;;;5032476;28;20049;-83
2023/05/16 05:47:52;;;;;;;14.43;1.98;;;9.20;99.90;;;;;;5046616;28;20566;-82
2023/05/16 05:50:18;;;;;;;12.18;2.05;;;9.20;99.90;;;;;;5048854;28;20076;-83
2023/05/16 05:52:43;;;;;;;11.65;1.60;;;9.20;99.90;;;;;;5019376;28;20742;-82
2023/05/16 05:55:09;;;;;;;14.48;2.50;;;9.20;99.90;;;;;;5042939;28;20340;-81
2023/05/16 05:57:35;;;;;;;11.93;1.83;;;9.20;99.90;;;;;;5040478;28;20075;-81
2023/05/16 06:00:00;;;;;;;11.30;1.48;;;9.50;99.90;;;;;;5058167;28;20312;-81
2023/05/16 06:02:26;;;;;;;10.80;1.42;;;9.40;99.90;;;;;;5038798;28;20505;-80
2023/05/16 06:04:52;;;;;;;12.75;1.50;;;9.40;99.90;;;;;;5025176;28;20048;-81
2023/05/16 06:07:18;;;;;;;18.38;1.92;;;9.40;99.90;;;;;;5041415;28;20041;-80
2023/05/16 06:09:44;;;;;;;10.68;1.90;;;9.50;99.90;;;;;;5038345;28;20076;-86
2023/05/16 06:12:14;;;;;;;14.15;1.80;;;9.50;99.90;;;;;;5040180;28;20048;-81
2023/05/16 06:14:39;;;;;;;7.97;1.75;;;9.50;99.90;;;;;;5042919;28;20044;-83
2023/05/16 06:17:05;;;;;;;6.07;0.90;;;9.50;99.90;;;;;;5045987;28;20067;-81
2023/05/16 06:19:31;;;;;;;5.75;1.20;;;9.50;99.90;;;;;;5045986;28;20060;-82
2023/05/16 06:21:56;;;;;;;3.90;0.60;;;9.50;99.90;;;;;;5044649;28;20585;-82
2023/05/16 06:24:22;;;;;;;3.75;0.98;;;9.60;99.90;;;;;;5028141;28;20037;-81
2023/05/16 06:26:49;;;;;;;13.38;1.40;;;9.10;99.90;;;;;;5027327;28;20207;-82
2023/05/16 06:29:15;;;;;;;8.95;1.23;;;9.60;99.90;;;;;;5044016;28;20135;-82
2023/05/16 06:31:41;;;;;;;6.30;1.17;;;9.60;99.90;;;;;;5041024;28;20053;-82
2023/05/16 06:34:07;;;;;;;6.50;1.20;;;9.60;99.90;;;;;;5024701;28;20401;-82
2023/05/16 06:36:33;;;;;;;13.95;1.38;;;9.90;99.90;;;;;;5042826;28;20493;-82
2023/05/16 06:38:58;;;;;;;6.25;0.90;;;9.70;99.90;;;;;;5041658;28;20500;-83
2023/05/16 06:41:25;;;;;;;8.23;1.10;;;9.80;99.90;;;;;;5044661;28;20045;-82
2023/05/16 06:43:51;;;;;;;7.60;1.02;;;10.00;99.90;;;;;;5042482;28;20066;-83
2023/05/16 06:46:17;;;;;;;8.77;1.67;;;10.00;99.90;;;;;;5025569;28;20533;-81
2023/05/16 06:48:43;;;;;;;5.82;1.08;;;10.10;99.90;;;;;;5023104;28;20044;-82
2023/05/16 06:51:09;;;;;;;9.45;1.38;;;10.10;99.90;;;;;;5027282;28;20083;-83
2023/05/16 06:53:35;;;;;;;12.35;1.50;;;10.10;99.90;;;;;;5042629;28;20041;-82
2023/05/16 06:56:01;;;;;;;11.15;1.38;;;10.10;99.90;;;;;;5025802;28;20037;-83
2023/05/16 06:58:27;;;;;;;9.40;1.90;;;10.10;99.90;;;;;;5043778;28;20056;-82
2023/05/16 07:00:52;;;;;;;9.60;1.40;;;10.10;99.90;;;;;;5041221;28;20060;-82
2023/05/16 07:03:18;;;;;;;8.75;1.33;;;10.20;99.90;;;;;;5042881;28;20033;-83
2023/05/16 07:05:44;;;;;;;15.75;1.67;;;10.20;99.90;;;;;;5044287;28;20049;-82
2023/05/16 07:08:10;;;;;;;10.85;1.45;;;10.20;99.90;;;;;;5025519;28;20066;-82
2023/05/16 07:10:35;;;;;;;12.68;2.08;;;10.40;99.90;;;;;;5026286;28;20649;-81
2023/05/16 07:13:01;;;;;;;8.65;1.40;;;10.20;99.90;;;;;;5026792;28;20041;-82
2023/05/16 07:15:27;;;;;;;12.02;1.55;;;10.30;99.90;;;;;;5043056;28;20139;-83
2023/05/16 07:17:53;;;;;;;12.38;2.10;;;10.40;99.90;;;;;;5061659;28;20056;-81
2023/05/16 07:20:18;;;;;;;7.78;1.73;;;10.40;99.90;;;;;;5059145;28;20037;-82
2023/05/16 07:22:44;;;;;;;10.50;1.83;;;10.40;99.90;;;;;;5026083;28;20123;-85
2023/05/16 07:25:11;;;;;;;9.88;1.70;;;10.30;99.90;;;;;;5042395;28;20040;-80
2023/05/16 07:27:40;;;;;;;10.23;1.65;;;10.30;99.90;;;;;;5042238;28;20044;-81
2023/05/16 07:30:08;;;;;;;14.07;1.67;;;10.20;99.90;;;;;;5042033;28;21040;-81
2023/05/16 07:32:34;;;;;;;9.20;1.30;;;10.30;99.90;;;;;;5045445;28;20119;-79
2023/05/16 07:34:59;;;;;;;12.23;1.80;;;10.40;99.90;;;;;;5043639;28;20124;-79
2023/05/16 07:37:25;;;;;;;11.65;1.83;;;10.50;99.90;;;;;;5040499;28;20528;-83
2023/05/16 07:39:51;;;;;;;9.68;1.42;;;10.60;99.90;;;;;;5035708;28;20707;-80
2023/05/16 07:42:17;;;;;;;8.90;1.55;;;11.00;99.90;;;;;;5042834;28;20382;-82
2023/05/16 07:44:42;;;;;;;13.10;1.73;;;11.10;99.90;;;;;;5038614;28;20379;-81
2023/05/16 07:47:08;;;;;;;16.25;2.08;;;11.20;99.90;;;;;;5043328;28;20711;-80
2023/05/16 07:49:37;;;;;;;15.20;1.88;;;11.50;99.90;;;;;;5024430;28;20045;-83
2023/05/16 07:52:03;;;;;;;11.73;1.50;;;11.70;99.90;;;;;;5038550;28;20772;-81
2023/05/16 07:54:30;;;;;;;12.18;2.08;;;11.50;99.90;;;;;;5056662;28;20123;-82
2023/05/16 07:56:56;;;;;;;7.47;1.65;;;11.50;99.90;;;;;;5031309;28;20579;-80
2023/05/16 07:59:21;;;;;;;13.63;1.73;;;11.60;99.90;;;;;;5038920;28;20045;-80
2023/05/16 08:01:47;;;;;;;10.65;2.22;;;11.70;99.90;;;;;;5025874;28;20552;-80
2023/05/16 08:04:13;;;;;;;12.98;2.15;;;11.90;99.90;;;;;;5026072;28;20517;-81
2023/05/16 08:06:39;;;;;;;15.18;2.20;;;12.00;99.90;;;;;;5041833;28;20048;-81
2023/05/16 08:09:05;;;;;;;11.70;1.88;;;12.20;99.90;;;;;;5025035;28;20454;-79
2023/05/16 08:11:32;;;;;;;16.98;1.75;;;12.30;99.90;;;;;;5044225;28;20443;-81
2023/05/16 08:13:57;;;;;;;7.97;1.25;;;12.40;99.90;;;;;;5045677;28;20049;-80
2023/05/16 08:16:23;;;;;;;15.30;1.98;;;12.50;99.90;;;;;;5027862;28;20752;-82
2023/05/16 08:18:49;;;;;;;11.68;2.10;;;12.40;99.90;;;;;;5043725;28;20072;-81
2023/05/16 08:21:17;;;;;;;13.82;2.20;;;12.30;99.90;;;;;;5044170;28;20732;-81
2023/05/16 08:23:43;;;;;;;10.45;1.95;;;12.40;99.90;;;;;;5043610;28;20421;-82
2023/05/16 08:26:09;;;;;;;14.27;1.80;;;12.40;99.90;;;;;;5044697;28;20049;-84
2023/05/16 08:28:35;;;;;;;11.38;2.00;;;12.40;99.90;;;;;;5045977;28;20047;-81
2023/05/16 08:31:00;;;;;;;9.75;1.92;;;12.40;99.90;;;;;;5046032;28;20041;-82
2023/05/16 08:33:26;;;;;;;10.57;1.40;;;12.40;99.90;;;;;;5025907;28;20072;-81
2023/05/16 08:35:52;;;;;;;11.75;1.70;;;12.30;99.90;;;;;;5023674;28;20078;-80
2023/05/16 08:38:18;;;;;;;13.68;2.00;;;12.30;99.90;;;;;;5040167;28;20052;-82
2023/05/16 08:40:44;;;;;;;10.80;1.75;;;12.50;99.90;;;;;;5042680;28;20598;-81
2023/05/16 08:43:10;;;;;;;10.90;1.70;;;12.50;99.90;;;;;;5025522;28;20505;-81
2023/05/16 08:45:36;;;;;;;12.85;1.67;;;12.80;99.90;;;;;;5026974;28;20392;-89
2023/05/16 08:48:04;;;;;;;14.98;1.90;;;12.80;99.90;;;;;;5026573;28;20071;-81
2023/05/16 08:50:31;;;;;;;15.90;1.90;;;12.70;99.90;;;;;;5027759;28;20045;-81
2023/05/16 08:53:04;;;;;;;7.78;1.48;;;12.80;99.90;;;;;;5040307;28;20049;-81
2023/05/16 08:55:30;;;;;;;10.13;1.60;;;12.90;99.90;;;;;;5045032;28;20056;-81
2023/05/16 08:57:56;;;;;;;11.02;1.40;;;12.70;99.90;;;;;;5042196;28;20063;-80
2023/05/16 09:00:23;;;;;;;14.32;1.80;;;12.70;99.90;;;;;;5041613;28;20510;-82
2023/05/16 09:02:48;;;;;;;13.30;1.60;;;12.70;99.90;;;;;;5041933;28;20041;-81
2023/05/16 09:05:16;;;;;;;7.72;1.58;;;12.80;99.90;;;;;;5043712;28;20033;-83
2023/05/16 09:07:43;;;;;;;13.82;2.15;;;12.80;99.90;;;;;;5025302;28;20060;-82
2023/05/16 09:10:10;;;;;;;7.80;1.45;;;12.90;99.90;;;;;;5043999;28;20037;-82
2023/05/16 09:12:36;;;;;;;14.32;1.92;;;12.90;99.90;;;;;;5022021;28;20048;-81
2023/05/16 09:15:03;;;;;;;9.90;1.50;;;12.90;99.90;;;;;;5026004;28;20049;-82
2023/05/16 09:17:42;;;;;;;13.15;2.13;;;13.00;99.90;;;;;;5041954;28;20044;-84
2023/05/16 09:20:10;;;;;;;12.85;1.85;;;13.10;99.90;;;;;;5042226;28;20056;-82
2023/05/16 09:22:36;;;;;;;10.13;1.55;;;13.10;99.90;;;;;;5022985;28;20127;-81
2023/05/16 09:25:03;;;;;;;8.85;1.35;;;13.10;99.90;;;;;;5043760;28;20167;-82
2023/05/16 09:27:30;;;;;;;8.90;1.73;;;13.20;99.90;;;;;;5042370;28;20507;-82
2023/05/16 09:29:58;;;;;;;9.75;1.80;;;13.30;99.90;;;;;;5043183;28;20103;-81
2023/05/16 09:32:24;;;;;;;11.88;1.90;;;13.30;99.90;;;;;;5038051;28;20080;-82
2023/05/16 09:34:52;;;;;;;10.27;1.65;;;13.30;99.90;;;;;;5042523;28;20041;-82
2023/05/16 09:37:19;;;;;;;11.10;1.50;;;13.20;99.90;;;;;;5042545;28;20087;-81
2023/05/16 09:39:47;;;;;;;10.73;1.30;;;13.20;99.90;;;;;;5025273;28;20064;-83
2023/05/16 09:42:16;;;;;;;9.98;1.75;;;13.20;99.90;;;;;;5042112;28;20063;-81
2023/05/16 09:44:50;;;;;;;12.13;1.70;;;13.20;99.90;;;;;;5039501;28;20052;-82
2023/05/16 09:47:17;;;;;;;13.45;1.92;;;13.10;99.90;;;;;;5042483;28;20045;-81
2023/05/16 09:49:45;;;;;;;9.75;1.80;;;13.10;99.90;;;;;;5046605;28;20148;-81
2023/05/16 09:52:12;;;;;;;14.38;1.60;;;13.10;99.90;;;;;;5045598;28;20044;-80
2023/05/16 09:54:38;;;;;;;11.02;2.13;;;13.20;99.90;;;;;;5047929;28;20044;-80
2023/05/16 09:57:04;;;;;;;7.03;1.15;;;13.20;99.90;;;;;;5044440;28;20123;-81
2023/05/16 09:59:34;;;;;;;7.90;1.17;;;13.10;99.90;;;;;;5047666;28;20032;-81
2023/05/16 10:02:02;;;;;;;7.80;1.38;;;13.00;99.90;;;;;;5046336;28;20052;-81
2023/05/16 10:04:27;;;;;;;10.63;1.65;;;12.90;99.90;;;;;;5048079;28;20040;-81
2023/05/16 10:06:57;;;;;;;8.50;1.50;;;12.90;99.90;;;;;;5045671;28;20355;-81
2023/05/16 10:09:23;;;;;;;8.88;1.40;;;13.00;99.90;;;;;;5045677;28;20043;-82
2023/05/16 10:11:52;;;;;;;11.02;1.42;;;13.00;99.90;;;;;;5042199;28;20421;-82
2023/05/16 10:14:19;;;;;;;14.07;1.92;;;13.00;99.90;;;;;;5045373;28;20481;-82
2023/05/16 10:16:50;;;;;;;14.05;1.90;;;12.90;99.90;;;;;;5048646;28;20044;-80
2023/05/16 10:19:19;;;;;;;9.32;1.50;;;12.90;99.90;;;;;;5045597;28;20036;-82
2023/05/16 10:21:50;;;;;;;5.03;1.10;;;13.00;99.90;;;;;;5028629;28;20496;-79
2023/05/16 10:24:22;;;;;;;7.45;1.33;;;13.10;99.90;;;;;;5045292;28;20072;-81
2023/05/16 10:26:50;;;;;;;7.35;1.30;;;13.20;99.90;;;;;;5042652;28;20080;-81
2023/05/16 10:29:17;;;;;;;6.93;1.42;;;13.40;99.90;;;;;;5043140;28;20045;-82
2023/05/16 10:31:43;;;;;;;20.95;1.77;;;13.40;99.90;;;;;;5029976;28;20060;-82
2023/05/16 10:34:12;;;;;;;9.55;1.63;;;13.40;99.90;;;;;;5040558;28;20409;-80
2023/05/16 10:36:39;;;;;;;14.15;1.60;;;13.40;99.90;;;;;;5041825;28;20126;-80
2023/05/16 10:39:05;;;;;;;7.90;1.45;;;13.40;99.90;;;;;;5022991;28;20080;-86
2023/05/16 10:41:32;;;;;;;9.65;1.38;;;13.40;99.90;;;;;;5042861;28;20534;-82
2023/05/16 10:43:58;;;;;;;9.60;1.65;;;13.50;99.90;;;;;;5043117;28;20406;-81
2023/05/16 10:46:27;;;;;;;7.63;1.30;;;13.60;99.90;;;;;;5043481;28;20037;-82
2023/05/16 10:48:52;;;;;;;9.38;1.30;;;13.70;99.90;;;;;;5045458;28;20049;-81
2023/05/16 10:51:21;;;;;;;8.23;1.40;;;13.60;99.90;;;;;;5026318;28;20040;-81
2023/05/16 10:53:50;;;;;;;14.63;2.03;;;13.60;99.90;;;;;;5027050;28;20421;-85
2023/05/16 10:56:25;;;;;;;9.50;1.45;;;13.60;99.90;;;;;;5025906;28;20057;-81
2023/05/16 10:58:53;;;;;;;12.23;1.85;;;13.50;99.90;;;;;;5041268;28;20037;-82
2023/05/16 11:01:20;;;;;;;7.55;1.58;;;13.50;99.90;;;;;;5042338;28;20049;-81
2023/05/16 11:04:09;;;;;;;15.98;2.22;;;13.50;99.90;;;;;;5044548;28;20073;-81
2023/05/16 11:06:43;;;;;;;8.38;1.60;;;13.50;99.90;;;;;;5059514;28;20147;-82
2023/05/16 11:09:14;;;;;;;9.32;1.15;;;13.50;99.90;;;;;;5041004;28;20531;-80
2023/05/16 11:11:59;;;;;;;4.85;1.60;;;13.40;99.90;;;;;;5037179;28;20090;-80
2023/05/16 11:14:31;;;;;;;12.95;2.15;;;13.40;99.90;;;;;;5054464;28;20103;-80
2023/05/16 11:17:07;;;;;;;7.95;1.40;;;13.40;99.90;;;;;;5021753;28;20727;-81
2023/05/16 11:19:51;;;;;;;14.73;1.80;;;13.40;99.90;;;;;;5039959;28;20144;-86
2023/05/16 11:22:22;;;;;;;9.93;2.17;;;13.30;99.90;;;;;;5054665;28;20056;-85
2023/05/16 11:24:53;;;;;;;13.35;1.58;;;13.40;99.90;;;;;;5038941;28;20048;-85
2023/05/16 11:27:32;;;;;;;10.77;1.88;;;13.30;99.90;;;;;;5042340;28;20135;-84
2023/05/16 11:30:15;;;;;;;12.52;1.90;;;13.20;99.90;;;;;;5058632;28;20126;-83
2023/05/16 11:32:44;;;;;;;8.20;1.90;;;13.20;99.90;;;;;;5048518;28;20021;-91
2023/05/16 11:35:11;;;;;;;6.97;1.80;;;13.20;99.90;;;;;;5043766;28;20044;-84
2023/05/16 11:37:38;;;;;;;9.27;1.90;;;13.20;99.90;;;;;;5041201;28;20401;-84
2023/05/16 11:40:07;;;;;;;16.45;2.63;;;13.20;99.90;;;;;;5040781;28;20530;-84
2023/05/16 11:42:41;;;;;;;12.32;2.65;;;13.30;99.90;;;;;;5041354;28;20041;-86
2023/05/16 11:45:13;;;;;;;9.10;1.77;;;13.30;99.90;;;;;;5044090;28;20126;-83
2023/05/16 11:47:43;;;;;;;10.93;1.73;;;13.40;99.90;;;;;;5042845;28;20049;-85
2023/05/16 11:50:17;;;;;;;9.15;1.85;;;13.40;99.90;;;;;;5023449;28;20053;-85
2023/05/16 11:52:46;;;;;;;9.30;2.13;;;13.40;99.90;;;;;;5026406;28;20071;-85
2023/05/16 11:55:13;;;;;;;6.55;1.83;;;13.40;99.90;;;;;;5046288;28;20049;-86
2023/05/16 11:57:46;;;;;;;12.90;1.67;;;13.40;99.90;;;;;;5047088;28;20096;-88
2023/05/16 12:00:17;;;;;;;10.77;2.28;;;13.40;99.90;;;;;;5024528;28;20053;-85
2023/05/16 12:02:47;;;;;;;9.18;2.17;;;13.40;99.90;;;;;;5040692;28;20052;-86
2023/05/16 12:05:14;;;;;;;11.50;2.20;;;13.40;99.90;;;;;;5043484;28;20049;-85
2023/05/16 12:07:43;;;;;;;12.25;2.33;;;13.50;99.90;;;;;;5055424;28;20056;-83
2023/05/16 12:10:11;;;;;;;12.73;2.75;;;13.60;99.90;;;;;;5040092;28;20045;-87
2023/05/16 12:12:40;;;;;;;11.95;2.22;;;13.60;99.90;;;;;;5026717;28;20037;-86
2023/05/16 12:15:08;;;;;;;9.23;2.13;;;13.50;99.90;;;;;;5042077;28;20041;-87
2023/05/16 12:17:35;;;;;;;7.68;2.10;;;13.60;99.90;;;;;;5044228;28;20744;-90
2023/05/16 12:20:04;;;;;;;10.63;1.92;;;13.60;99.90;;;;;;5040796;28;20076;-86
2023/05/16 12:22:30;;;;;;;8.77;1.85;;;13.60;99.90;;;;;;5037626;28;20956;-86
2023/05/16 12:24:59;;;;;;;9.38;2.35;;;13.60;99.90;;;;;;5037704;28;20045;-85
2023/05/16 12:27:26;;;;;;;9.98;2.33;;;13.60;99.90;;;;;;5023443;28;20157;-87
2023/05/16 12:29:52;;;;;;;11.18;1.90;;;13.70;99.90;;;;;;5028320;28;20110;-85
2023/05/16 12:32:19;;;;;;;9.02;2.40;;;13.70;99.90;;;;;;5041437;28;20131;-85
2023/05/16 12:34:52;;;;;;;12.27;2.33;;;13.70;99.90;;;;;;5043696;28;20044;-86
2023/05/16 12:37:19;;;;;;;10.07;2.50;;;13.70;99.90;;;;;;5040838;28;20056;-86
2023/05/16 12:39:47;;;;;;;13.15;2.58;;;13.70;99.90;;;;;;5045705;28;20052;-86
2023/05/16 12:42:16;;;;;;;15.02;2.83;;;13.60;99.90;;;;;;5043259;28;20036;-84
2023/05/16 12:44:44;;;;;;;10.88;2.63;;;13.60;99.90;;;;;;5059388;28;20055;-85
2023/05/16 12:47:11;;;;;;;10.70;2.45;;;13.60;99.90;;;;;;5025839;28;20054;-87